sensor_id;sensor_type;location;lat;lon;timestamp;P1;durP1;ratioP1;P2;durP2;ratioP2
40847;SDS011;26570;50.962;5.340;2022-07-18T00:02:40;1.27;;;0.50;;
40847;SDS011;26570;50.962;5.340;2022-07-18T00:05:25;1.77;;;0.67;;
40847;SDS011;26570;50.962;5.340;2022-07-18T00:08:10;1.87;;;0.40;;
40847;SDS011;26570;50.962;5.340;2022-07-18T00:10:55;3.57;;;0.40;;
40847;SDS011;26570;50.962;5.340;2022-07-18T00:13:40;1.97;;;0.40;;
40847;SDS011;26570;50.962;5.340;2022-07-18T00:16:25;3.60;;;0.50;;
40847;SDS011;26570;50.962;5.340;2022-07-18T00:19:10;3.97;;;0.50;;
40847;SDS011;26570;50.962;5.340;2022-07-18T00:21:55;5.03;;;0.50;;
40847;SDS011;26570;50.962;5.340;2022-07-18T00:24:39;1.77;;;0.50;;
40847;SDS011;26570;50.962;5.340;2022-07-18T00:27:24;3.93;;;0.50;;
40847;SDS011;26570;50.962;5.340;2022-07-18T00:30:09;2.33;;;0.43;;
40847;SDS011;26570;50.962;5.340;2022-07-18T00:32:54;4.23;;;0.50;;
40847;SDS011;26570;50.962;5.340;2022-07-18T00:35:39;15.53;;;0.60;;
40847;SDS011;26570;50.962;5.340;2022-07-18T00:38:24;3.33;;;0.60;;
40847;SDS011;26570;50.962;5.340;2022-07-18T00:41:09;1.73;;;0.50;;
40847;SDS011;26570;50.962;5.340;2022-07-18T00:43:58;7.57;;;1.90;;
40847;SDS011;26570;50.962;5.340;2022-07-18T00:46:43;1.77;;;0.57;;
40847;SDS011;26570;50.962;5.340;2022-07-18T00:49:29;3.10;;;0.60;;
40847;SDS011;26570;50.962;5.340;2022-07-18T00:52:15;3.43;;;0.60;;
40847;SDS011;26570;50.962;5.340;2022-07-18T00:55:01;4.93;;;0.60;;
40847;SDS011;26570;50.962;5.340;2022-07-18T00:57:47;1.67;;;0.60;;
40847;SDS011;26570;50.962;5.340;2022-07-18T01:00:33;3.73;;;0.77;;
40847;SDS011;26570;50.962;5.340;2022-07-18T01:03:36;5.10;;;0.60;;
40847;SDS011;26570;50.962;5.340;2022-07-18T01:06:21;7.00;;;1.10;;
40847;SDS011;26570;50.962;5.340;2022-07-18T01:09:06;4.60;;;0.83;;
40847;SDS011;26570;50.962;5.340;2022-07-18T01:11:51;6.67;;;0.80;;
40847;SDS011;26570;50.962;5.340;2022-07-18T01:14:37;2.20;;;0.50;;
40847;SDS011;26570;50.962;5.340;2022-07-18T01:17:22;7.27;;;0.83;;
40847;SDS011;26570;50.962;5.340;2022-07-18T01:20:07;2.37;;;0.60;;
40847;SDS011;26570;50.962;5.340;2022-07-18T01:22:52;3.50;;;0.60;;
40847;SDS011;26570;50.962;5.340;2022-07-18T01:25:37;4.70;;;0.60;;
40847;SDS011;26570;50.962;5.340;2022-07-18T01:28:22;11.30;;;0.60;;
40847;SDS011;26570;50.962;5.340;2022-07-18T01:31:07;2.77;;;0.70;;
40847;SDS011;26570;50.962;5.340;2022-07-18T01:33:55;7.40;;;1.43;;
40847;SDS011;26570;50.962;5.340;2022-07-18T01:36:40;6.87;;;1.60;;
40847;SDS011;26570;50.962;5.340;2022-07-18T01:39:25;8.87;;;0.83;;
40847;SDS011;26570;50.962;5.340;2022-07-18T01:42:10;6.07;;;0.53;;
40847;SDS011;26570;50.962;5.340;2022-07-18T01:44:55;7.10;;;0.67;;
40847;SDS011;26570;50.962;5.340;2022-07-18T01:47:41;4.50;;;0.53;;
40847;SDS011;26570;50.962;5.340;2022-07-18T01:50:26;2.83;;;0.50;;
40847;SDS011;26570;50.962;5.340;2022-07-18T01:53:11;2.23;;;0.50;;
40847;SDS011;26570;50.962;5.340;2022-07-18T01:55:56;3.53;;;0.50;;
40847;SDS011;26570;50.962;5.340;2022-07-18T01:58:41;1.67;;;0.50;;
40847;SDS011;26570;50.962;5.340;2022-07-18T02:01:26;2.43;;;0.60;;
40847;SDS011;26570;50.962;5.340;2022-07-18T02:04:11;4.83;;;0.83;;
40847;SDS011;26570;50.962;5.340;2022-07-18T02:06:58;3.27;;;0.50;;
40847;SDS011;26570;50.962;5.340;2022-07-18T02:09:44;1.70;;;0.50;;
40847;SDS011;26570;50.962;5.340;2022-07-18T02:12:29;5.70;;;0.50;;
40847;SDS011;26570;50.962;5.340;2022-07-18T02:15:14;3.73;;;0.40;;
40847;SDS011;26570;50.962;5.340;2022-07-18T02:17:59;2.27;;;0.60;;
40847;SDS011;26570;50.962;5.340;2022-07-18T02:20:44;5.73;;;0.70;;
40847;SDS011;26570;50.962;5.340;2022-07-18T02:23:29;1.53;;;0.50;;
40847;SDS011;26570;50.962;5.340;2022-07-18T02:26:14;2.07;;;0.50;;
40847;SDS011;26570;50.962;5.340;2022-07-18T02:28:59;4.77;;;0.50;;
40847;SDS011;26570;50.962;5.340;2022-07-18T02:31:43;2.37;;;0.40;;
40847;SDS011;26570;50.962;5.340;2022-07-18T02:34:28;8.83;;;0.60;;
40847;SDS011;26570;50.962;5.340;2022-07-18T02:37:13;4.10;;;0.50;;
40847;SDS011;26570;50.962;5.340;2022-07-18T02:39:57;5.73;;;0.53;;
40847;SDS011;26570;50.962;5.340;2022-07-18T02:42:42;2.90;;;0.50;;
40847;SDS011;26570;50.962;5.340;2022-07-18T02:45:27;2.67;;;0.57;;
40847;SDS011;26570;50.962;5.340;2022-07-18T02:48:12;3.27;;;0.70;;
40847;SDS011;26570;50.962;5.340;2022-07-18T02:50:56;7.73;;;0.60;;
40847;SDS011;26570;50.962;5.340;2022-07-18T02:53:41;5.63;;;0.70;;
40847;SDS011;26570;50.962;5.340;2022-07-18T02:56:26;1.83;;;0.50;;
40847;SDS011;26570;50.962;5.340;2022-07-18T02:59:11;6.20;;;0.60;;
40847;SDS011;26570;50.962;5.340;2022-07-18T03:01:56;2.87;;;0.50;;
40847;SDS011;26570;50.962;5.340;2022-07-18T03:04:40;13.20;;;0.67;;
40847;SDS011;26570;50.962;5.340;2022-07-18T03:07:25;12.87;;;0.83;;
40847;SDS011;26570;50.962;5.340;2022-07-18T03:10:10;10.90;;;0.87;;
40847;SDS011;26570;50.962;5.340;2022-07-18T03:12:55;10.30;;;1.17;;
40847;SDS011;26570;50.962;5.340;2022-07-18T03:15:40;5.07;;;0.60;;
40847;SDS011;26570;50.962;5.340;2022-07-18T03:18:25;13.13;;;0.70;;
40847;SDS011;26570;50.962;5.340;2022-07-18T03:21:10;2.40;;;0.70;;
40847;SDS011;26570;50.962;5.340;2022-07-18T03:23:55;7.93;;;0.60;;
40847;SDS011;26570;50.962;5.340;2022-07-18T03:26:42;3.73;;;0.60;;
40847;SDS011;26570;50.962;5.340;2022-07-18T03:29:26;3.90;;;0.60;;
40847;SDS011;26570;50.962;5.340;2022-07-18T03:32:12;4.30;;;0.60;;
40847;SDS011;26570;50.962;5.340;2022-07-18T03:34:56;1.70;;;0.70;;
40847;SDS011;26570;50.962;5.340;2022-07-18T03:37:41;6.10;;;0.60;;
40847;SDS011;26570;50.962;5.340;2022-07-18T03:40:25;3.17;;;0.73;;
40847;SDS011;26570;50.962;5.340;2022-07-18T03:43:10;2.10;;;0.60;;
40847;SDS011;26570;50.962;5.340;2022-07-18T03:45:55;2.63;;;0.60;;
40847;SDS011;26570;50.962;5.340;2022-07-18T03:48:39;4.17;;;0.63;;
40847;SDS011;26570;50.962;5.340;2022-07-18T03:51:24;2.80;;;0.60;;
40847;SDS011;26570;50.962;5.340;2022-07-18T03:54:10;2.70;;;0.70;;
40847;SDS011;26570;50.962;5.340;2022-07-18T03:56:55;5.07;;;0.90;;
40847;SDS011;26570;50.962;5.340;2022-07-18T03:59:40;4.50;;;0.80;;
40847;SDS011;26570;50.962;5.340;2022-07-18T04:02:24;9.30;;;0.70;;
40847;SDS011;26570;50.962;5.340;2022-07-18T04:05:09;2.20;;;0.80;;
40847;SDS011;26570;50.962;5.340;2022-07-18T04:07:54;4.77;;;0.93;;
40847;SDS011;26570;50.962;5.340;2022-07-18T04:10:39;4.17;;;0.70;;
40847;SDS011;26570;50.962;5.340;2022-07-18T04:13:24;4.23;;;0.73;;
40847;SDS011;26570;50.962;5.340;2022-07-18T04:16:09;4.63;;;0.90;;
40847;SDS011;26570;50.962;5.340;2022-07-18T04:18:53;5.47;;;0.83;;
40847;SDS011;26570;50.962;5.340;2022-07-18T04:21:38;5.00;;;0.73;;
40847;SDS011;26570;50.962;5.340;2022-07-18T04:24:23;2.07;;;0.70;;
40847;SDS011;26570;50.962;5.340;2022-07-18T04:27:08;5.30;;;0.70;;
40847;SDS011;26570;50.962;5.340;2022-07-18T04:29:54;2.33;;;0.70;;
40847;SDS011;26570;50.962;5.340;2022-07-18T04:32:39;2.73;;;0.70;;
40847;SDS011;26570;50.962;5.340;2022-07-18T04:35:25;4.50;;;0.97;;
40847;SDS011;26570;50.962;5.340;2022-07-18T04:38:10;6.23;;;1.00;;
40847;SDS011;26570;50.962;5.340;2022-07-18T04:40:55;3.03;;;0.90;;
40847;SDS011;26570;50.962;5.340;2022-07-18T04:43:39;6.23;;;1.33;;
40847;SDS011;26570;50.962;5.340;2022-07-18T04:46:24;8.13;;;0.90;;
40847;SDS011;26570;50.962;5.340;2022-07-18T04:49:09;6.80;;;0.90;;
40847;SDS011;26570;50.962;5.340;2022-07-18T04:51:54;9.97;;;1.20;;
40847;SDS011;26570;50.962;5.340;2022-07-18T04:54:38;8.27;;;1.00;;
40847;SDS011;26570;50.962;5.340;2022-07-18T04:57:24;4.20;;;0.80;;
40847;SDS011;26570;50.962;5.340;2022-07-18T05:00:12;9.97;;;1.10;;
40847;SDS011;26570;50.962;5.340;2022-07-18T05:02:58;12.47;;;1.40;;
40847;SDS011;26570;50.962;5.340;2022-07-18T05:05:43;13.40;;;1.60;;
40847;SDS011;26570;50.962;5.340;2022-07-18T05:08:28;23.07;;;1.43;;
40847;SDS011;26570;50.962;5.340;2022-07-18T05:11:12;5.00;;;1.50;;
40847;SDS011;26570;50.962;5.340;2022-07-18T05:13:57;12.10;;;1.30;;
40847;SDS011;26570;50.962;5.340;2022-07-18T05:16:42;10.10;;;2.03;;
40847;SDS011;26570;50.962;5.340;2022-07-18T05:19:27;7.83;;;1.47;;
40847;SDS011;26570;50.962;5.340;2022-07-18T05:22:12;8.93;;;1.37;;
40847;SDS011;26570;50.962;5.340;2022-07-18T05:24:57;12.53;;;1.17;;
40847;SDS011;26570;50.962;5.340;2022-07-18T05:27:41;18.10;;;1.83;;
40847;SDS011;26570;50.962;5.340;2022-07-18T05:30:25;6.67;;;1.20;;
40847;SDS011;26570;50.962;5.340;2022-07-18T05:33:10;16.33;;;1.10;;
40847;SDS011;26570;50.962;5.340;2022-07-18T05:35:55;9.57;;;0.90;;
40847;SDS011;26570;50.962;5.340;2022-07-18T05:38:39;8.40;;;1.10;;
40847;SDS011;26570;50.962;5.340;2022-07-18T05:41:24;6.63;;;1.10;;
40847;SDS011;26570;50.962;5.340;2022-07-18T05:44:08;7.23;;;0.83;;
40847;SDS011;26570;50.962;5.340;2022-07-18T05:46:53;12.03;;;1.27;;
40847;SDS011;26570;50.962;5.340;2022-07-18T05:49:37;8.67;;;1.40;;
40847;SDS011;26570;50.962;5.340;2022-07-18T05:52:24;10.40;;;1.63;;
40847;SDS011;26570;50.962;5.340;2022-07-18T05:55:08;7.30;;;1.00;;
40847;SDS011;26570;50.962;5.340;2022-07-18T05:57:54;9.93;;;0.73;;
40847;SDS011;26570;50.962;5.340;2022-07-18T06:00:39;9.40;;;0.80;;
40847;SDS011;26570;50.962;5.340;2022-07-18T06:03:23;4.77;;;0.90;;
40847;SDS011;26570;50.962;5.340;2022-07-18T06:06:08;6.73;;;0.77;;
40847;SDS011;26570;50.962;5.340;2022-07-18T06:08:53;6.97;;;0.73;;
40847;SDS011;26570;50.962;5.340;2022-07-18T06:11:37;8.03;;;0.70;;
40847;SDS011;26570;50.962;5.340;2022-07-18T06:14:22;4.17;;;0.80;;
40847;SDS011;26570;50.962;5.340;2022-07-18T06:17:07;8.13;;;0.70;;
40847;SDS011;26570;50.962;5.340;2022-07-18T06:19:53;5.88;;;0.90;;
40847;SDS011;26570;50.962;5.340;2022-07-18T06:22:38;2.78;;;0.47;;
40847;SDS011;26570;50.962;5.340;2022-07-18T06:25:22;10.18;;;1.13;;
40847;SDS011;26570;50.962;5.340;2022-07-18T06:28:07;2.50;;;0.50;;
40847;SDS011;26570;50.962;5.340;2022-07-18T06:30:52;5.18;;;0.40;;
40847;SDS011;26570;50.962;5.340;2022-07-18T06:33:37;7.97;;;0.50;;
40847;SDS011;26570;50.962;5.340;2022-07-18T06:36:22;2.35;;;0.40;;
40847;SDS011;26570;50.962;5.340;2022-07-18T06:39:10;2.63;;;0.50;;
40847;SDS011;26570;50.962;5.340;2022-07-18T06:41:55;3.58;;;0.50;;
40847;SDS011;26570;50.962;5.340;2022-07-18T06:44:40;3.95;;;0.50;;
40847;SDS011;26570;50.962;5.340;2022-07-18T06:47:25;1.98;;;0.47;;
40847;SDS011;26570;50.962;5.340;2022-07-18T06:50:11;2.47;;;0.40;;
40847;SDS011;26570;50.962;5.340;2022-07-18T06:52:57;3.67;;;0.40;;
40847;SDS011;26570;50.962;5.340;2022-07-18T06:55:41;9.50;;;0.50;;
40847;SDS011;26570;50.962;5.340;2022-07-18T06:58:26;2.95;;;0.50;;
40847;SDS011;26570;50.962;5.340;2022-07-18T07:01:10;5.90;;;0.40;;
40847;SDS011;26570;50.962;5.340;2022-07-18T07:03:55;5.90;;;1.52;;
40847;SDS011;26570;50.962;5.340;2022-07-18T07:06:40;5.53;;;0.40;;
40847;SDS011;26570;50.962;5.340;2022-07-18T07:09:25;5.18;;;0.40;;
40847;SDS011;26570;50.962;5.340;2022-07-18T07:12:10;5.35;;;0.45;;
40847;SDS011;26570;50.962;5.340;2022-07-18T07:14:55;10.63;;;0.40;;
40847;SDS011;26570;50.962;5.340;2022-07-18T07:17:40;2.92;;;0.40;;
40847;SDS011;26570;50.962;5.340;2022-07-18T07:20:25;6.45;;;0.30;;
40847;SDS011;26570;50.962;5.340;2022-07-18T07:23:10;2.00;;;0.30;;
40847;SDS011;26570;50.962;5.340;2022-07-18T07:25:55;4.40;;;0.40;;
40847;SDS011;26570;50.962;5.340;2022-07-18T07:28:40;2.72;;;0.30;;
40847;SDS011;26570;50.962;5.340;2022-07-18T07:31:25;1.08;;;0.30;;
40847;SDS011;26570;50.962;5.340;2022-07-18T07:34:10;6.50;;;0.30;;
40847;SDS011;26570;50.962;5.340;2022-07-18T07:36:55;5.88;;;0.38;;
40847;SDS011;26570;50.962;5.340;2022-07-18T07:39:40;2.00;;;0.30;;
40847;SDS011;26570;50.962;5.340;2022-07-18T07:42:25;1.00;;;0.30;;
40847;SDS011;26570;50.962;5.340;2022-07-18T07:45:10;2.95;;;0.30;;
40847;SDS011;26570;50.962;5.340;2022-07-18T07:47:55;4.38;;;0.30;;
40847;SDS011;26570;50.962;5.340;2022-07-18T07:50:40;2.70;;;0.30;;
40847;SDS011;26570;50.962;5.340;2022-07-18T07:53:26;6.20;;;0.52;;
40847;SDS011;26570;50.962;5.340;2022-07-18T07:56:10;1.90;;;0.30;;
40847;SDS011;26570;50.962;5.340;2022-07-18T07:58:55;1.77;;;0.35;;
40847;SDS011;26570;50.962;5.340;2022-07-18T08:01:40;4.38;;;0.30;;
40847;SDS011;26570;50.962;5.340;2022-07-18T08:04:25;3.70;;;0.30;;
40847;SDS011;26570;50.962;5.340;2022-07-18T08:07:11;1.75;;;0.30;;
40847;SDS011;26570;50.962;5.340;2022-07-18T08:09:56;2.35;;;0.30;;
40847;SDS011;26570;50.962;5.340;2022-07-18T08:12:41;2.30;;;0.30;;
40847;SDS011;26570;50.962;5.340;2022-07-18T08:15:25;2.08;;;0.40;;
40847;SDS011;26570;50.962;5.340;2022-07-18T08:18:11;2.50;;;0.20;;
40847;SDS011;26570;50.962;5.340;2022-07-18T08:20:56;2.17;;;0.20;;
40847;SDS011;26570;50.962;5.340;2022-07-18T08:23:41;3.63;;;0.20;;
40847;SDS011;26570;50.962;5.340;2022-07-18T08:26:26;2.22;;;0.20;;
40847;SDS011;26570;50.962;5.340;2022-07-18T08:29:11;1.85;;;0.20;;
40847;SDS011;26570;50.962;5.340;2022-07-18T08:31:56;1.50;;;0.17;;
40847;SDS011;26570;50.962;5.340;2022-07-18T08:34:41;2.53;;;0.25;;
40847;SDS011;26570;50.962;5.340;2022-07-18T08:37:26;2.40;;;0.13;;
40847;SDS011;26570;50.962;5.340;2022-07-18T08:40:11;0.95;;;0.20;;
40847;SDS011;26570;50.962;5.340;2022-07-18T08:42:56;1.10;;;0.20;;
40847;SDS011;26570;50.962;5.340;2022-07-18T08:45:42;2.35;;;0.30;;
40847;SDS011;26570;50.962;5.340;2022-07-18T08:48:27;2.20;;;0.10;;
40847;SDS011;26570;50.962;5.340;2022-07-18T08:51:12;2.42;;;0.20;;
40847;SDS011;26570;50.962;5.340;2022-07-18T08:54:00;1.08;;;0.20;;
40847;SDS011;26570;50.962;5.340;2022-07-18T08:56:45;3.20;;;0.22;;
40847;SDS011;26570;50.962;5.340;2022-07-18T08:59:30;2.67;;;0.20;;
40847;SDS011;26570;50.962;5.340;2022-07-18T09:02:15;4.28;;;0.20;;
40847;SDS011;26570;50.962;5.340;2022-07-18T09:05:01;1.70;;;0.20;;
40847;SDS011;26570;50.962;5.340;2022-07-18T09:07:47;2.28;;;0.28;;
40847;SDS011;26570;50.962;5.340;2022-07-18T09:10:40;1.63;;;0.10;;
40847;SDS011;26570;50.962;5.340;2022-07-18T09:13:44;2.58;;;0.20;;
40847;SDS011;26570;50.962;5.340;2022-07-18T09:16:29;3.42;;;0.20;;
40847;SDS011;26570;50.962;5.340;2022-07-18T09:19:15;1.30;;;0.20;;
40847;SDS011;26570;50.962;5.340;2022-07-18T09:22:17;1.17;;;0.20;;
40847;SDS011;26570;50.962;5.340;2022-07-18T09:25:07;1.10;;;0.20;;
40847;SDS011;26570;50.962;5.340;2022-07-18T09:27:56;0.98;;;0.20;;
40847;SDS011;26570;50.962;5.340;2022-07-18T09:30:41;2.67;;;0.20;;
40847;SDS011;26570;50.962;5.340;2022-07-18T09:33:27;3.08;;;0.20;;
40847;SDS011;26570;50.962;5.340;2022-07-18T09:36:12;0.68;;;0.20;;
40847;SDS011;26570;50.962;5.340;2022-07-18T09:38:57;2.65;;;0.20;;
40847;SDS011;26570;50.962;5.340;2022-07-18T09:41:42;0.95;;;0.20;;
40847;SDS011;26570;50.962;5.340;2022-07-18T09:44:27;0.63;;;0.20;;
40847;SDS011;26570;50.962;5.340;2022-07-18T09:47:12;3.75;;;0.20;;
40847;SDS011;26570;50.962;5.340;2022-07-18T09:49:57;2.17;;;0.20;;
40847;SDS011;26570;50.962;5.340;2022-07-18T09:52:42;6.07;;;0.20;;
40847;SDS011;26570;50.962;5.340;2022-07-18T09:55:27;1.13;;;0.10;;
40847;SDS011;26570;50.962;5.340;2022-07-18T09:58:14;1.23;;;0.20;;
40847;SDS011;26570;50.962;5.340;2022-07-18T10:01:03;1.85;;;0.20;;
40847;SDS011;26570;50.962;5.340;2022-07-18T10:03:49;0.70;;;0.30;;
40847;SDS011;26570;50.962;5.340;2022-07-18T10:06:35;1.70;;;0.30;;
40847;SDS011;26570;50.962;5.340;2022-07-18T10:09:22;2.22;;;0.20;;
40847;SDS011;26570;50.962;5.340;2022-07-18T10:12:08;1.42;;;0.20;;
40847;SDS011;26570;50.962;5.340;2022-07-18T10:14:54;0.93;;;0.20;;
40847;SDS011;26570;50.962;5.340;2022-07-18T10:17:39;0.57;;;0.10;;
40847;SDS011;26570;50.962;5.340;2022-07-18T10:20:29;0.63;;;0.13;;
40847;SDS011;26570;50.962;5.340;2022-07-18T10:26:37;4.13;;;0.20;;
40847;SDS011;26570;50.962;5.340;2022-07-18T10:29:28;4.10;;;0.20;;
40847;SDS011;26570;50.962;5.340;2022-07-18T10:32:13;1.40;;;0.13;;
40847;SDS011;26570;50.962;5.340;2022-07-18T10:34:59;3.80;;;0.68;;
40847;SDS011;26570;50.962;5.340;2022-07-18T10:37:45;0.60;;;0.10;;
40847;SDS011;26570;50.962;5.340;2022-07-18T10:40:30;1.85;;;0.20;;
40847;SDS011;26570;50.962;5.340;2022-07-18T10:46:15;2.60;;;0.20;;
40847;SDS011;26570;50.962;5.340;2022-07-18T10:48:59;1.10;;;0.20;;
40847;SDS011;26570;50.962;5.340;2022-07-18T10:51:44;2.33;;;0.20;;
40847;SDS011;26570;50.962;5.340;2022-07-18T10:54:29;2.00;;;0.20;;
40847;SDS011;26570;50.962;5.340;2022-07-18T10:57:14;1.08;;;0.20;;
40847;SDS011;26570;50.962;5.340;2022-07-18T11:00:10;0.63;;;0.10;;
40847;SDS011;26570;50.962;5.340;2022-07-18T11:05:47;1.40;;;0.17;;
40847;SDS011;26570;50.962;5.340;2022-07-18T11:08:34;0.50;;;0.20;;
40847;SDS011;26570;50.962;5.340;2022-07-18T11:11:19;0.68;;;0.20;;
40847;SDS011;26570;50.962;5.340;2022-07-18T11:14:06;1.50;;;0.20;;
40847;SDS011;26570;50.962;5.340;2022-07-18T11:17:03;1.70;;;0.10;;
40847;SDS011;26570;50.962;5.340;2022-07-18T11:20:21;2.22;;;0.20;;
40847;SDS011;26570;50.962;5.340;2022-07-18T11:23:14;0.70;;;0.20;;
40847;SDS011;26570;50.962;5.340;2022-07-18T11:26:01;1.75;;;0.20;;
40847;SDS011;26570;50.962;5.340;2022-07-18T11:28:46;0.60;;;0.20;;
40847;SDS011;26570;50.962;5.340;2022-07-18T11:31:42;2.78;;;0.30;;
40847;SDS011;26570;50.962;5.340;2022-07-18T11:34:31;1.08;;;0.20;;
40847;SDS011;26570;50.962;5.340;2022-07-18T11:37:16;1.65;;;0.20;;
40847;SDS011;26570;50.962;5.340;2022-07-18T11:40:08;0.63;;;0.20;;
40847;SDS011;26570;50.962;5.340;2022-07-18T11:42:58;1.85;;;0.20;;
40847;SDS011;26570;50.962;5.340;2022-07-18T11:45:44;1.20;;;0.20;;
40847;SDS011;26570;50.962;5.340;2022-07-18T11:48:30;0.40;;;0.17;;
40847;SDS011;26570;50.962;5.340;2022-07-18T11:51:17;2.92;;;0.20;;
40847;SDS011;26570;50.962;5.340;2022-07-18T11:54:04;1.05;;;0.20;;
40847;SDS011;26570;50.962;5.340;2022-07-18T11:56:49;1.02;;;0.20;;
40847;SDS011;26570;50.962;5.340;2022-07-18T11:59:40;2.42;;;0.20;;
40847;SDS011;26570;50.962;5.340;2022-07-18T12:05:51;1.90;;;0.20;;
40847;SDS011;26570;50.962;5.340;2022-07-18T12:08:41;1.65;;;0.20;;
40847;SDS011;26570;50.962;5.340;2022-07-18T12:11:31;3.10;;;0.20;;
40847;SDS011;26570;50.962;5.340;2022-07-18T12:14:21;0.50;;;0.13;;
40847;SDS011;26570;50.962;5.340;2022-07-18T12:17:06;0.68;;;0.20;;
40847;SDS011;26570;50.962;5.340;2022-07-18T12:19:51;1.52;;;0.10;;
40847;SDS011;26570;50.962;5.340;2022-07-18T12:22:36;1.38;;;0.20;;
40847;SDS011;26570;50.962;5.340;2022-07-18T12:25:42;0.43;;;0.10;;
40847;SDS011;26570;50.962;5.340;2022-07-18T12:28:28;1.48;;;0.40;;
40847;SDS011;26570;50.962;5.340;2022-07-18T12:34:21;1.13;;;0.20;;
40847;SDS011;26570;50.962;5.340;2022-07-18T12:37:05;1.80;;;0.20;;
40847;SDS011;26570;50.962;5.340;2022-07-18T12:39:55;0.40;;;0.10;;
40847;SDS011;26570;50.962;5.340;2022-07-18T12:42:41;1.40;;;0.20;;
40847;SDS011;26570;50.962;5.340;2022-07-18T12:45:26;2.78;;;0.10;;
40847;SDS011;26570;50.962;5.340;2022-07-18T12:48:12;0.50;;;0.20;;
40847;SDS011;26570;50.962;5.340;2022-07-18T12:51:04;1.00;;;0.17;;
40847;SDS011;26570;50.962;5.340;2022-07-18T12:53:56;1.33;;;0.20;;
40847;SDS011;26570;50.962;5.340;2022-07-18T12:56:41;0.93;;;0.20;;
40847;SDS011;26570;50.962;5.340;2022-07-18T12:59:26;0.60;;;0.20;;
40847;SDS011;26570;50.962;5.340;2022-07-18T13:02:11;1.02;;;0.20;;
40847;SDS011;26570;50.962;5.340;2022-07-18T13:04:57;1.00;;;0.25;;
40847;SDS011;26570;50.962;5.340;2022-07-18T13:07:42;0.40;;;0.10;;
40847;SDS011;26570;50.962;5.340;2022-07-18T13:10:26;1.17;;;0.20;;
40847;SDS011;26570;50.962;5.340;2022-07-18T13:13:11;0.95;;;0.13;;
40847;SDS011;26570;50.962;5.340;2022-07-18T13:15:56;0.45;;;0.17;;
40847;SDS011;26570;50.962;5.340;2022-07-18T13:18:41;1.48;;;0.10;;
40847;SDS011;26570;50.962;5.340;2022-07-18T13:21:25;0.73;;;0.20;;
40847;SDS011;26570;50.962;5.340;2022-07-18T13:24:10;0.68;;;0.20;;
40847;SDS011;26570;50.962;5.340;2022-07-18T13:26:56;2.60;;;0.15;;
40847;SDS011;26570;50.962;5.340;2022-07-18T13:29:41;0.70;;;0.10;;
40847;SDS011;26570;50.962;5.340;2022-07-18T13:32:25;0.70;;;0.20;;
40847;SDS011;26570;50.962;5.340;2022-07-18T13:35:12;0.70;;;0.20;;
40847;SDS011;26570;50.962;5.340;2022-07-18T13:37:57;2.97;;;0.20;;
40847;SDS011;26570;50.962;5.340;2022-07-18T13:40:42;0.57;;;0.10;;
40847;SDS011;26570;50.962;5.340;2022-07-18T13:43:27;0.32;;;0.10;;
40847;SDS011;26570;50.962;5.340;2022-07-18T13:46:12;2.10;;;0.20;;
40847;SDS011;26570;50.962;5.340;2022-07-18T13:48:57;0.80;;;0.17;;
40847;SDS011;26570;50.962;5.340;2022-07-18T13:51:42;1.85;;;0.17;;
40847;SDS011;26570;50.962;5.340;2022-07-18T13:54:27;0.60;;;0.20;;
40847;SDS011;26570;50.962;5.340;2022-07-18T13:57:11;1.70;;;0.20;;
40847;SDS011;26570;50.962;5.340;2022-07-18T13:59:56;0.80;;;0.20;;
40847;SDS011;26570;50.962;5.340;2022-07-18T14:02:41;0.80;;;0.20;;
40847;SDS011;26570;50.962;5.340;2022-07-18T14:05:26;2.10;;;0.20;;
40847;SDS011;26570;50.962;5.340;2022-07-18T14:08:11;2.25;;;0.20;;
40847;SDS011;26570;50.962;5.340;2022-07-18T14:10:55;0.65;;;0.20;;
40847;SDS011;26570;50.962;5.340;2022-07-18T14:13:40;1.90;;;0.20;;
40847;SDS011;26570;50.962;5.340;2022-07-18T14:16:25;2.53;;;0.25;;
40847;SDS011;26570;50.962;5.340;2022-07-18T14:19:10;1.67;;;0.20;;
40847;SDS011;26570;50.962;5.340;2022-07-18T14:21:55;0.43;;;0.15;;
40847;SDS011;26570;50.962;5.340;2022-07-18T14:24:40;4.75;;;0.10;;
40847;SDS011;26570;50.962;5.340;2022-07-18T14:27:24;1.10;;;0.20;;
40847;SDS011;26570;50.962;5.340;2022-07-18T14:30:10;1.48;;;0.20;;
40847;SDS011;26570;50.962;5.340;2022-07-18T14:32:57;1.00;;;0.10;;
40847;SDS011;26570;50.962;5.340;2022-07-18T14:35:42;1.40;;;0.20;;
40847;SDS011;26570;50.962;5.340;2022-07-18T14:38:27;0.93;;;0.20;;
40847;SDS011;26570;50.962;5.340;2022-07-18T14:41:12;1.55;;;0.20;;
40847;SDS011;26570;50.962;5.340;2022-07-18T14:43:57;0.85;;;0.17;;
40847;SDS011;26570;50.962;5.340;2022-07-18T14:46:42;4.07;;;0.20;;
40847;SDS011;26570;50.962;5.340;2022-07-18T14:49:27;0.55;;;0.10;;
40847;SDS011;26570;50.962;5.340;2022-07-18T14:52:12;0.60;;;0.10;;
40847;SDS011;26570;50.962;5.340;2022-07-18T14:54:57;0.77;;;0.13;;
40847;SDS011;26570;50.962;5.340;2022-07-18T14:57:42;1.83;;;0.10;;
40847;SDS011;26570;50.962;5.340;2022-07-18T15:00:27;0.60;;;0.20;;
40847;SDS011;26570;50.962;5.340;2022-07-18T15:03:12;1.90;;;0.15;;
40847;SDS011;26570;50.962;5.340;2022-07-18T15:05:57;0.30;;;0.10;;
40847;SDS011;26570;50.962;5.340;2022-07-18T15:08:41;1.98;;;0.20;;
40847;SDS011;26570;50.962;5.340;2022-07-18T15:11:26;0.80;;;0.20;;
40847;SDS011;26570;50.962;5.340;2022-07-18T15:14:11;1.63;;;0.20;;
40847;SDS011;26570;50.962;5.340;2022-07-18T15:16:56;1.75;;;0.13;;
40847;SDS011;26570;50.962;5.340;2022-07-18T15:19:41;1.85;;;0.10;;
40847;SDS011;26570;50.962;5.340;2022-07-18T15:22:26;0.77;;;0.10;;
40847;SDS011;26570;50.962;5.340;2022-07-18T15:25:11;4.82;;;0.40;;
40847;SDS011;26570;50.962;5.340;2022-07-18T15:27:55;0.57;;;0.10;;
40847;SDS011;26570;50.962;5.340;2022-07-18T15:30:40;0.50;;;0.20;;
40847;SDS011;26570;50.962;5.340;2022-07-18T15:33:25;1.23;;;0.20;;
40847;SDS011;26570;50.962;5.340;2022-07-18T15:36:13;0.40;;;0.15;;
40847;SDS011;26570;50.962;5.340;2022-07-18T15:38:57;0.40;;;0.20;;
40847;SDS011;26570;50.962;5.340;2022-07-18T15:41:42;0.63;;;0.10;;
40847;SDS011;26570;50.962;5.340;2022-07-18T15:44:27;1.83;;;0.17;;
40847;SDS011;26570;50.962;5.340;2022-07-18T15:47:12;1.98;;;0.38;;
40847;SDS011;26570;50.962;5.340;2022-07-18T15:49:57;1.30;;;0.20;;
40847;SDS011;26570;50.962;5.340;2022-07-18T15:52:41;2.35;;;0.10;;
40847;SDS011;26570;50.962;5.340;2022-07-18T15:55:28;0.70;;;0.20;;
40847;SDS011;26570;50.962;5.340;2022-07-18T15:58:14;0.77;;;0.20;;
40847;SDS011;26570;50.962;5.340;2022-07-18T16:00:58;0.65;;;0.10;;
40847;SDS011;26570;50.962;5.340;2022-07-18T16:03:43;2.85;;;0.20;;
40847;SDS011;26570;50.962;5.340;2022-07-18T16:06:28;0.30;;;0.10;;
40847;SDS011;26570;50.962;5.340;2022-07-18T16:09:13;2.10;;;0.20;;
40847;SDS011;26570;50.962;5.340;2022-07-18T16:11:58;1.00;;;0.20;;
40847;SDS011;26570;50.962;5.340;2022-07-18T16:14:43;0.70;;;0.13;;
40847;SDS011;26570;50.962;5.340;2022-07-18T16:17:27;0.80;;;0.20;;
40847;SDS011;26570;50.962;5.340;2022-07-18T16:20:12;0.47;;;0.10;;
40847;SDS011;26570;50.962;5.340;2022-07-18T16:22:58;1.67;;;0.20;;
40847;SDS011;26570;50.962;5.340;2022-07-18T16:25:43;1.45;;;0.22;;
40847;SDS011;26570;50.962;5.340;2022-07-18T16:28:28;0.50;;;0.17;;
40847;SDS011;26570;50.962;5.340;2022-07-18T16:31:12;1.23;;;0.20;;
40847;SDS011;26570;50.962;5.340;2022-07-18T16:33:57;0.55;;;0.10;;
40847;SDS011;26570;50.962;5.340;2022-07-18T16:36:42;1.75;;;0.20;;
40847;SDS011;26570;50.962;5.340;2022-07-18T16:39:26;3.78;;;0.20;;
40847;SDS011;26570;50.962;5.340;2022-07-18T16:42:11;3.25;;;0.20;;
40847;SDS011;26570;50.962;5.340;2022-07-18T16:44:56;1.05;;;0.20;;
40847;SDS011;26570;50.962;5.340;2022-07-18T16:47:42;0.68;;;0.20;;
40847;SDS011;26570;50.962;5.340;2022-07-18T16:50:27;3.58;;;0.20;;
40847;SDS011;26570;50.962;5.340;2022-07-18T16:53:12;2.50;;;0.20;;
40847;SDS011;26570;50.962;5.340;2022-07-18T16:55:57;1.92;;;0.20;;